^^

Meteo Aereoporti Centro-Italia

 

 
LIRZ - Perugia S.Egidio (208 m.)
Dati ricevuti: 27/05/2018 12:50
Qualche nuvola
Qualche nuvola
 Vento da direzione variabile
Vento: direzione variabile 4 km/h
TEMPERATURA: 28°C
Indice di Calore: 28°C
P.to di Rugiada: 17°C
Umidità: 51%
Pressione: 1019 hPa
Nuvole: Qualche nuvola
Visibilità: 10 km
Dettagli Nuvole: Qualche nuvola 1524 m
2018/05/27 10:50 LIRZ 271050Z VRB02KT 9999 FEW050 28/17 Q1019
 
LIPY - Ancona Falconara (12 m.)
Dati ricevuti: 27/05/2018 12:50
Sereno
Sereno
 Vento da N
Vento: N 11 km/h
TEMPERATURA: 26°C
P.to di Rugiada: 17°C
Umidità: 58%
Pressione: 1018 hPa
Condizioni generali: Sereno
Visibilità: oltre 10 km
2018/05/27 10:50 LIPY 271050Z 01006KT 330V040 CAVOK 26/17 Q1018
 
LIPR - Rimini Miramare (12 m.)
Dati ricevuti: 27/05/2018 13:15
Sereno
Sereno
 Vento da NE
Vento: NE 9 km/h
TEMPERATURA: 25°C
P.to di Rugiada: 18°C
Umidità: 65%
Pressione: 1018 hPa
Condizioni generali: Sereno
Visibilità: oltre 10 km
2018/05/27 11:15 LIPR 271115Z 05005KT CAVOK 25/18 Q1018
 
LIRF - Roma Fiumicino (2 m.)
Dati ricevuti: 27/05/2018 13:20
Sereno
Sereno
 Vento da S
Vento: S 15 km/h
TEMPERATURA: 27°C
Indice di Calore: 28°C
P.to di Rugiada: 19°C
Umidità: 62%
Pressione: 1018 hPa
Condizioni generali: Sereno
Visibilità: oltre 10 km
2018/05/27 11:20 LIRF 271120Z 19008KT 140V210 CAVOK 27/19 Q1018 NOSIG
 
LIRA - Roma Ciampino (129 m.)
Dati ricevuti: 27/05/2018 13:20
Sereno
Sereno
 Vento da S
Vento: S 15 km/h
TEMPERATURA: 28°C
Indice di Calore: 29°C
P.to di Rugiada: 18°C
Umidità: 55%
Pressione: 1018 hPa
Condizioni generali: Sereno
Visibilità: oltre 10 km
2018/05/27 11:20 LIRA 271120Z 18008KT 150V210 CAVOK 28/18 Q1018
 
LIRU - Roma Urbe (17 m.)
Dati ricevuti: 27/05/2018 12:50
Sereno
Sereno
 Vento da calm
Vento: Calma
TEMPERATURA: 29°C
Indice di Calore: 30°C
P.to di Rugiada: 19°C
Umidità: 55%
Pressione: 1018 hPa
Condizioni generali: Sereno
Visibilità: oltre 10 km
2018/05/27 10:50 LIRU 271050Z 00000KT CAVOK 29/19 Q1018
 
LIVF - Frontone (570 m.)
Dati ricevuti: 27/05/2018 07:55
Dati non aggiornati
Sereno
Sereno
 Vento da SSE
Vento: SSE 4 km/h
TEMPERATURA: 19°C
P.to di Rugiada: 11°C
Umidità: 60%
Pressione: 1019 hPa
Condizioni generali: Sereno
Visibilità: oltre 10 km
2018/05/27 05:55 LIVF 270555Z 16002KT CAVOK 19/11 Q1019 RMK BKN BKN210 MON LIB VAL NW NEBBIA DIM VIS MIN 9999
 
LIRQ - Firenze Peretola (40 m.)
Dati ricevuti: 27/05/2018 13:20
Sereno
Sereno
 Vento da direzione variabile
Vento: direzione variabile 7 km/h
TEMPERATURA: 30°C
Indice di Calore: 29°C
P.to di Rugiada: 15°C
Umidità: 40%
Pressione: 1017 hPa
Condizioni generali: Sereno
Visibilità: oltre 10 km
2018/05/27 11:20 LIRQ 271120Z VRB04KT CAVOK 30/15 Q1017
 
LIBP - Pescara (10 m.)
Dati ricevuti: 27/05/2018 12:50
Sereno
Sereno
 Vento da NNE
Vento: NNE 13 km/h
TEMPERATURA: 27°C
Indice di Calore: 28°C
P.to di Rugiada: 17°C
Umidità: 54%
Pressione: 1019 hPa
Nuvole: Sereno
Visibilità: 10 km
2018/05/27 10:50 LIBP 271050Z AUTO 03007KT 9999 NCD 27/17 Q1019
 
LIRV - Viterbo (300 m.)
Dati ricevuti: 27/05/2018 12:55
Qualche nuvola
Qualche nuvola
 Vento da direzione variabile
Vento: direzione variabile 0 km/h
TEMPERATURA: 26°C
P.to di Rugiada: 17°C
Umidità: 58%
Pressione: 1019 hPa
Nuvole: Qualche nuvola
Visibilità: 10 km
Dettagli Nuvole: Qualche nuvola 671 m
2018/05/27 10:55 LIRV 271055Z /////KT 9999 FEW022 26/17 Q1019
 
LIQN - Rieti (389 m.)
Dati ricevuti: 27/05/2018 12:50
Qualche nuvola
Qualche nuvola
 Vento da direzione variabile
Vento: direzione variabile 4 km/h
TEMPERATURA: 26°C
P.to di Rugiada: 15°C
Umidità: 51%
Pressione: 1019 hPa
Nuvole: Qualche nuvola
Visibilità: 10 km
Dettagli Nuvole: Qualche nuvola 1372 m
2018/05/27 10:50 LIQN 271050Z VRB02KT 9999 FEW045 26/15 Q1019
 
LIRG - Guidonia -RM- (88 m.)
Dati ricevuti: 25/05/2018 19:55
Dati non aggiornati
Qualche nuvola
Qualche nuvola
 Vento da SSW
Vento: SSW 9 km/h
TEMPERATURA: 23°C
P.to di Rugiada: 14°C
Umidità: 57%
Pressione: 1015 hPa
Nuvole: Qualche nuvola
Visibilità: 10 km
Dettagli Nuvole: Qualche nuvola 1372 m
2018/05/25 17:55 LIRG 251755Z 21005KT 9999 FEW045TCU 23/14 Q1015
 
LIRK - Terminillo -RI-(1874 m.)
Dati ricevuti: 27/05/2018 12:55

 Vento da direzione variabile
Vento: direzione variabile 0 km/h
2018/05/27 10:55 LIRK 271055Z AUTO /////KT //// ///// Q////
 
LIPK - Forlì (27 m.)
Dati ricevuti: 25/05/2018 17:50
Dati non aggiornati
Qualche nuvola
Qualche nuvola
 Vento da ENE
Vento: ENE 7 km/h
TEMPERATURA: 28°C
Indice di Calore: 28°C
P.to di Rugiada: 17°C
Umidità: 51%
Pressione: 1013 hPa
Nuvole: Qualche nuvola
Visibilità: 10 km
Dettagli Nuvole: Qualche nuvola 762 m
2018/05/25 15:50 LIPK 251550Z 06004KT 9999 FEW025 28/17 Q1013
 
LIRS - Grosseto (5 m.)
Dati ricevuti: 27/05/2018 12:55
Qualche nuvola
Qualche nuvola
 Vento da SW
Vento: SW 19 km/h
TEMPERATURA: 27°C
Indice di Calore: 30°C
P.to di Rugiada: 23°C
Umidità: 79%
Pressione: 1017 hPa
Nuvole: Qualche nuvola
Visibilità: 10 km
Dettagli Nuvole: Qualche nuvola 762 m
2018/05/27 10:55 LIRS 271055Z 23010KT 9999 FEW025 27/23 Q1017
 
LIRP - Pisa S.Giusto (2 m.)
Dati ricevuti: 27/05/2018 13:15
Sereno
Sereno
 Vento da NNW
Vento: NNW 7 km/h
TEMPERATURA: 28°C
Indice di Calore: 29°C
P.to di Rugiada: 19°C
Umidità: 58%
Pressione: 1018 hPa
Condizioni generali: Sereno
Visibilità: oltre 10 km
2018/05/27 11:15 LIRP 271115Z 33004KT CAVOK 28/19 Q1018 NOSIG